sensor_id;sensor_type;location;lat;lon;timestamp;pressure;altitude;pressure_sealevel;temperature;humidity
16094;BME280;8151;47.824;12.092;2023-01-27T00:02:09;96346.16;;;0.70;80.63
16094;BME280;8151;47.824;12.092;2023-01-27T00:04:39;96352.09;;;0.72;80.39
16094;BME280;8151;47.824;12.092;2023-01-27T00:07:07;96346.06;;;0.72;80.33
16094;BME280;8151;47.824;12.092;2023-01-27T00:09:37;96343.56;;;0.70;80.43
16094;BME280;8151;47.824;12.092;2023-01-27T00:12:17;96345.44;;;0.68;80.47
16094;BME280;8151;47.824;12.092;2023-01-27T00:15:04;96348.25;;;0.65;80.37
16094;BME280;8151;47.824;12.092;2023-01-27T00:17:34;96342.31;;;0.63;80.58
16094;BME280;8151;47.824;12.092;2023-01-27T00:20:08;96346.59;;;0.64;80.87
16094;BME280;8151;47.824;12.092;2023-01-27T00:22:37;96340.44;;;0.65;80.66
16094;BME280;8151;47.824;12.092;2023-01-27T00:25:23;96333.56;;;0.64;80.78
16094;BME280;8151;47.824;12.092;2023-01-27T00:27:52;96335.22;;;0.65;80.65
16094;BME280;8151;47.824;12.092;2023-01-27T00:30:21;96335.22;;;0.65;80.75
16094;BME280;8151;47.824;12.092;2023-01-27T00:32:50;96329.19;;;0.65;80.63
16094;BME280;8151;47.824;12.092;2023-01-27T00:35:38;96326.59;;;0.65;80.59
16094;BME280;8151;47.824;12.092;2023-01-27T00:38:08;96320.44;;;0.66;80.58
16094;BME280;8151;47.824;12.092;2023-01-27T00:40:36;96319.50;;;0.67;80.87
16094;BME280;8151;47.824;12.092;2023-01-27T00:43:05;96324.59;;;0.68;80.60
16094;BME280;8151;47.824;12.092;2023-01-27T00:45:33;96333.44;;;0.66;80.88
16094;BME280;8151;47.824;12.092;2023-01-27T00:48:17;96329.28;;;0.63;80.97
16094;BME280;8151;47.824;12.092;2023-01-27T00:50:47;96331.06;;;0.63;80.97
16094;BME280;8151;47.824;12.092;2023-01-27T00:53:15;96331.06;;;0.63;80.62
16094;BME280;8151;47.824;12.092;2023-01-27T00:55:43;96331.91;;;0.63;80.63
16094;BME280;8151;47.824;12.092;2023-01-27T00:58:13;96330.00;;;0.65;80.83
16094;BME280;8151;47.824;12.092;2023-01-27T01:00:42;96330.97;;;0.64;80.47
16094;BME280;8151;47.824;12.092;2023-01-27T01:03:10;96330.84;;;0.66;80.46
16094;BME280;8151;47.824;12.092;2023-01-27T01:05:41;96334.16;;;0.68;80.47
16094;BME280;8151;47.824;12.092;2023-01-27T01:08:20;96340.34;;;0.67;80.29
16094;BME280;8151;47.824;12.092;2023-01-27T01:10:49;96337.72;;;0.67;80.55
16094;BME280;8151;47.824;12.092;2023-01-27T01:13:19;96342.09;;;0.66;80.18
16094;BME280;8151;47.824;12.092;2023-01-27T01:15:49;96354.06;;;0.69;80.17
16094;BME280;8151;47.824;12.092;2023-01-27T01:18:17;96346.25;;;0.69;80.54
16094;BME280;8151;47.824;12.092;2023-01-27T01:20:46;96342.94;;;0.67;80.51
16094;BME280;8151;47.824;12.092;2023-01-27T01:23:23;96350.75;;;0.67;80.38
16094;BME280;8151;47.824;12.092;2023-01-27T01:25:52;96343.75;;;0.67;80.32
16094;BME280;8151;47.824;12.092;2023-01-27T01:28:22;96344.81;;;0.65;80.34
16094;BME280;8151;47.824;12.092;2023-01-27T01:30:54;96344.81;;;0.65;80.34
16094;BME280;8151;47.824;12.092;2023-01-27T01:33:23;96344.81;;;0.65;80.48
16094;BME280;8151;47.824;12.092;2023-01-27T01:35:51;96343.84;;;0.66;80.32
16094;BME280;8151;47.824;12.092;2023-01-27T01:38:20;96333.44;;;0.66;80.43
16094;BME280;8151;47.824;12.092;2023-01-27T01:40:50;96340.44;;;0.65;80.58
16094;BME280;8151;47.824;12.092;2023-01-27T01:43:19;96332.72;;;0.64;80.34
16094;BME280;8151;47.824;12.092;2023-01-27T01:45:51;96330.97;;;0.64;80.55
16094;BME280;8151;47.824;12.092;2023-01-27T01:48:27;96328.56;;;0.61;80.58
16094;BME280;8151;47.824;12.092;2023-01-27T01:51:02;96328.91;;;0.56;80.63
16094;BME280;8151;47.824;12.092;2023-01-27T01:53:38;96336.91;;;0.53;80.53
16094;BME280;8151;47.824;12.092;2023-01-27T01:56:13;96329.31;;;0.50;80.54
16094;BME280;8151;47.824;12.092;2023-01-27T01:58:44;96326.94;;;0.47;80.63
16094;BME280;8151;47.824;12.092;2023-01-27T02:01:15;96318.41;;;0.45;80.80
16094;BME280;8151;47.824;12.092;2023-01-27T02:03:51;96317.59;;;0.45;80.55
16094;BME280;8151;47.824;12.092;2023-01-27T02:06:20;96316.72;;;0.44;80.63
16094;BME280;8151;47.824;12.092;2023-01-27T02:08:50;96310.69;;;0.44;80.52
16094;BME280;8151;47.824;12.092;2023-01-27T02:11:20;96311.84;;;0.39;80.87
16094;BME280;8151;47.824;12.092;2023-01-27T02:13:49;96310.19;;;0.38;80.43
16094;BME280;8151;47.824;12.092;2023-01-27T02:16:18;96304.16;;;0.38;80.96
16094;BME280;8151;47.824;12.092;2023-01-27T02:18:47;96314.88;;;0.33;80.44
16094;BME280;8151;47.824;12.092;2023-01-27T02:21:16;96304.47;;;0.33;80.62
16094;BME280;8151;47.824;12.092;2023-01-27T02:23:54;96305.19;;;0.35;80.56
16094;BME280;8151;47.824;12.092;2023-01-27T02:26:28;96309.69;;;0.33;80.58
16094;BME280;8151;47.824;12.092;2023-01-27T02:28:59;96308.81;;;0.33;80.55
16094;BME280;8151;47.824;12.092;2023-01-27T02:31:27;96301.97;;;0.32;80.28
16094;BME280;8151;47.824;12.092;2023-01-27T02:33:58;96311.44;;;0.33;80.25
16094;BME280;8151;47.824;12.092;2023-01-27T02:36:29;96299.28;;;0.33;80.37
16094;BME280;8151;47.824;12.092;2023-01-27T02:39:01;96304.47;;;0.33;80.21
16094;BME280;8151;47.824;12.092;2023-01-27T02:41:34;96312.16;;;0.35;79.83
16094;BME280;8151;47.824;12.092;2023-01-27T02:44:04;96301.75;;;0.35;79.95
16094;BME280;8151;47.824;12.092;2023-01-27T02:46:33;96301.03;;;0.33;80.03
16094;BME280;8151;47.824;12.092;2023-01-27T02:49:01;96296.78;;;0.32;79.72
16094;BME280;8151;47.824;12.092;2023-01-27T02:51:30;96291.03;;;0.27;80.09
16094;BME280;8151;47.824;12.092;2023-01-27T02:53:59;96302.59;;;0.23;79.90
16094;BME280;8151;47.824;12.092;2023-01-27T02:56:27;96306.03;;;0.23;79.92
16094;BME280;8151;47.824;12.092;2023-01-27T02:58:57;96303.56;;;0.22;79.78
16094;BME280;8151;47.824;12.092;2023-01-27T03:01:26;96307.81;;;0.23;79.54
16094;BME280;8151;47.824;12.092;2023-01-27T03:03:54;96309.78;;;0.19;79.75
16094;BME280;8151;47.824;12.092;2023-01-27T03:06:23;96305.53;;;0.18;79.69
16094;BME280;8151;47.824;12.092;2023-01-27T03:08:55;96305.72;;;0.15;79.71
16094;BME280;8151;47.824;12.092;2023-01-27T03:11:23;96310.31;;;0.11;79.63
16094;BME280;8151;47.824;12.092;2023-01-27T03:14:07;96296.91;;;0.05;79.30
16094;BME280;8151;47.824;12.092;2023-01-27T03:16:36;96292.03;;;0.00;79.23
16094;BME280;8151;47.824;12.092;2023-01-27T03:19:22;96297.22;;;0.00;79.17
16094;BME280;8151;47.824;12.092;2023-01-27T03:21:55;96292.13;;;-0.02;79.09
16094;BME280;8151;47.824;12.092;2023-01-27T03:24:23;96295.66;;;-0.03;79.12
16094;BME280;8151;47.824;12.092;2023-01-27T03:26:52;96291.28;;;-0.02;79.42
16094;BME280;8151;47.824;12.092;2023-01-27T03:29:24;96286.06;;;-0.02;79.11
16094;BME280;8151;47.824;12.092;2023-01-27T03:32:10;96287.66;;;0.01;79.18
16094;BME280;8151;47.824;12.092;2023-01-27T03:34:38;96286.81;;;0.00;79.23
16094;BME280;8151;47.824;12.092;2023-01-27T03:37:07;96285.88;;;0.01;79.18
16094;BME280;8151;47.824;12.092;2023-01-27T03:39:52;96284.94;;;0.02;79.22
16094;BME280;8151;47.824;12.092;2023-01-27T03:42:38;96285.78;;;0.03;79.00
16094;BME280;8151;47.824;12.092;2023-01-27T03:45:28;96283.16;;;0.03;78.97
16094;BME280;8151;47.824;12.092;2023-01-27T03:48:16;96283.91;;;0.05;79.08
16094;BME280;8151;47.824;12.092;2023-01-27T03:50:47;96280.47;;;0.04;78.70
16094;BME280;8151;47.824;12.092;2023-01-27T03:53:19;96284.72;;;0.05;78.79
16094;BME280;8151;47.824;12.092;2023-01-27T03:55:48;96282.13;;;0.05;78.59
16094;BME280;8151;47.824;12.092;2023-01-27T03:58:19;96275.38;;;0.03;78.76
16094;BME280;8151;47.824;12.092;2023-01-27T04:00:51;96282.34;;;0.02;78.52
16094;BME280;8151;47.824;12.092;2023-01-27T04:03:21;96282.22;;;0.04;78.75
16094;BME280;8151;47.824;12.092;2023-01-27T04:06:09;96273.59;;;0.03;78.44
16094;BME280;8151;47.824;12.092;2023-01-27T04:08:55;96275.28;;;0.04;78.56
16094;BME280;8151;47.824;12.092;2023-01-27T04:11:24;96277.88;;;0.04;78.27
16094;BME280;8151;47.824;12.092;2023-01-27T04:14:11;96271.00;;;0.03;78.50
16094;BME280;8151;47.824;12.092;2023-01-27T04:16:42;96272.88;;;0.01;78.24
16094;BME280;8151;47.824;12.092;2023-01-27T04:19:16;96280.78;;;-0.01;78.33
16094;BME280;8151;47.824;12.092;2023-01-27T04:21:48;96276.53;;;-0.02;78.04
16094;BME280;8151;47.824;12.092;2023-01-27T04:24:16;96274.84;;;-0.03;78.09
16094;BME280;8151;47.824;12.092;2023-01-27T04:26:54;96275.66;;;-0.02;77.91
16094;BME280;8151;47.824;12.092;2023-01-27T04:29:24;96282.03;;;-0.06;78.05
16094;BME280;8151;47.824;12.092;2023-01-27T04:31:55;96283.78;;;-0.07;78.34
16094;BME280;8151;47.824;12.092;2023-01-27T04:34:25;96275.16;;;-0.07;78.41
16094;BME280;8151;47.824;12.092;2023-01-27T04:36:55;96278.06;;;-0.12;78.42
16094;BME280;8151;47.824;12.092;2023-01-27T04:39:25;96283.91;;;-0.21;78.65
16094;BME280;8151;47.824;12.092;2023-01-27T04:41:57;96275.59;;;-0.26;78.73
16094;BME280;8151;47.824;12.092;2023-01-27T04:44:26;96282.97;;;-0.33;78.70
16094;BME280;8151;47.824;12.092;2023-01-27T04:46:55;96289.09;;;-0.34;79.05
16094;BME280;8151;47.824;12.092;2023-01-27T04:49:24;96291.19;;;-0.26;79.08
16094;BME280;8151;47.824;12.092;2023-01-27T04:51:53;96292.53;;;-0.21;78.70
16094;BME280;8151;47.824;12.092;2023-01-27T04:54:22;96287.75;;;-0.14;78.84
16094;BME280;8151;47.824;12.092;2023-01-27T04:56:55;96296.91;;;-0.08;78.62
16094;BME280;8151;47.824;12.092;2023-01-27T04:59:25;96293.28;;;-0.06;78.33
16094;BME280;8151;47.824;12.092;2023-01-27T05:01:53;96293.88;;;-0.02;78.21
16094;BME280;8151;47.824;12.092;2023-01-27T05:04:23;96292.03;;;0.00;78.48
16094;BME280;8151;47.824;12.092;2023-01-27T05:06:53;96291.91;;;0.02;78.40
16094;BME280;8151;47.824;12.092;2023-01-27T05:09:22;96290.16;;;0.02;78.67
16094;BME280;8151;47.824;12.092;2023-01-27T05:11:50;96289.19;;;0.03;78.43
16094;BME280;8151;47.824;12.092;2023-01-27T05:14:18;96293.47;;;0.04;78.54
16094;BME280;8151;47.824;12.092;2023-01-27T05:16:55;96293.47;;;0.04;78.36
16094;BME280;8151;47.824;12.092;2023-01-27T05:19:25;96303.75;;;0.06;78.18
16094;BME280;8151;47.824;12.092;2023-01-27T05:21:53;96309.81;;;0.06;78.11
16094;BME280;8151;47.824;12.092;2023-01-27T05:24:21;96306.34;;;0.06;78.37
16094;BME280;8151;47.824;12.092;2023-01-27T05:26:50;96310.97;;;0.02;78.56
16094;BME280;8151;47.824;12.092;2023-01-27T05:29:19;96304.09;;;0.01;78.48
16094;BME280;8151;47.824;12.092;2023-01-27T05:31:48;96310.00;;;0.03;78.27
16094;BME280;8151;47.824;12.092;2023-01-27T05:34:16;96308.13;;;0.05;78.38
16094;BME280;8151;47.824;12.092;2023-01-27T05:36:46;96319.25;;;0.07;78.20
16094;BME280;8151;47.824;12.092;2023-01-27T05:39:15;96317.38;;;0.09;78.29
16094;BME280;8151;47.824;12.092;2023-01-27T05:41:43;96319.06;;;0.10;78.29
16094;BME280;8151;47.824;12.092;2023-01-27T05:44:12;96323.53;;;0.08;78.80
16094;BME280;8151;47.824;12.092;2023-01-27T05:46:41;96323.53;;;0.08;78.25
16094;BME280;8151;47.824;12.092;2023-01-27T05:49:09;96327.59;;;0.12;78.74
16094;BME280;8151;47.824;12.092;2023-01-27T05:51:38;96334.44;;;0.13;78.60
16094;BME280;8151;47.824;12.092;2023-01-27T05:54:08;96330.94;;;0.14;78.67
16094;BME280;8151;47.824;12.092;2023-01-27T05:56:37;96332.81;;;0.12;78.52
16094;BME280;8151;47.824;12.092;2023-01-27T05:59:06;96340.50;;;0.14;78.25
16094;BME280;8151;47.824;12.092;2023-01-27T06:01:37;96336.13;;;0.14;78.43
16094;BME280;8151;47.824;12.092;2023-01-27T06:04:05;96347.34;;;0.15;78.33
16094;BME280;8151;47.824;12.092;2023-01-27T06:06:34;96349.03;;;0.16;78.72
16094;BME280;8151;47.824;12.092;2023-01-27T06:09:02;96348.91;;;0.17;78.38
16094;BME280;8151;47.824;12.092;2023-01-27T06:11:32;96349.88;;;0.16;78.32
16094;BME280;8151;47.824;12.092;2023-01-27T06:14:01;96346.31;;;0.17;78.14
16094;BME280;8151;47.824;12.092;2023-01-27T06:16:29;96345.38;;;0.18;78.18
16094;BME280;8151;47.824;12.092;2023-01-27T06:18:57;96347.16;;;0.18;78.31
16094;BME280;8151;47.824;12.092;2023-01-27T06:21:26;96346.31;;;0.17;78.31
16094;BME280;8151;47.824;12.092;2023-01-27T06:23:54;96356.94;;;0.14;78.02
16094;BME280;8151;47.824;12.092;2023-01-27T06:26:24;96346.44;;;0.03;78.60
16094;BME280;8151;47.824;12.092;2023-01-27T06:28:56;96355.19;;;0.02;78.75
16094;BME280;8151;47.824;12.092;2023-01-27T06:31:24;96360.38;;;0.02;78.78
16094;BME280;8151;47.824;12.092;2023-01-27T06:33:53;96351.84;;;0.00;78.62
16094;BME280;8151;47.824;12.092;2023-01-27T06:36:22;96358.69;;;0.01;78.76
16094;BME280;8151;47.824;12.092;2023-01-27T06:38:50;96357.78;;;0.02;78.45
16094;BME280;8151;47.824;12.092;2023-01-27T06:41:19;96357.97;;;-0.01;78.65
16094;BME280;8151;47.824;12.092;2023-01-27T06:43:47;96359.94;;;-0.05;78.47
16094;BME280;8151;47.824;12.092;2023-01-27T06:46:17;96361.91;;;-0.08;78.60
16094;BME280;8151;47.824;12.092;2023-01-27T06:48:46;96360.91;;;-0.06;78.90
16094;BME280;8151;47.824;12.092;2023-01-27T06:51:14;96362.44;;;-0.03;78.83
16094;BME280;8151;47.824;12.092;2023-01-27T06:53:43;96364.09;;;-0.02;78.95
16094;BME280;8151;47.824;12.092;2023-01-27T06:56:11;96363.50;;;-0.06;78.78
16094;BME280;8151;47.824;12.092;2023-01-27T06:58:42;96359.94;;;-0.05;79.02
16094;BME280;8151;47.824;12.092;2023-01-27T07:01:10;96364.22;;;-0.04;79.15
16094;BME280;8151;47.824;12.092;2023-01-27T07:03:40;96362.97;;;-0.11;79.33
16094;BME280;8151;47.824;12.092;2023-01-27T07:06:11;96359.53;;;-0.11;79.08
16094;BME280;8151;47.824;12.092;2023-01-27T07:08:41;96355.78;;;-0.07;79.46
16094;BME280;8151;47.824;12.092;2023-01-27T07:11:11;96357.88;;;0.01;79.10
16094;BME280;8151;47.824;12.092;2023-01-27T07:13:40;96367.53;;;0.11;79.20
16094;BME280;8151;47.824;12.092;2023-01-27T07:16:08;96364.84;;;0.13;79.35
16094;BME280;8151;47.824;12.092;2023-01-27T07:18:37;96362.03;;;0.03;79.30
16094;BME280;8151;47.824;12.092;2023-01-27T07:21:07;96363.19;;;-0.01;79.60
16094;BME280;8151;47.824;12.092;2023-01-27T07:23:35;96360.47;;;0.01;79.83
16094;BME280;8151;47.824;12.092;2023-01-27T07:26:04;96369.00;;;0.03;79.64
16094;BME280;8151;47.824;12.092;2023-01-27T07:28:50;96366.91;;;0.08;79.77
16094;BME280;8151;47.824;12.092;2023-01-27T07:31:19;96375.16;;;0.14;79.53
16094;BME280;8151;47.824;12.092;2023-01-27T07:33:47;96378.38;;;0.18;79.65
16094;BME280;8151;47.824;12.092;2023-01-27T07:36:17;96380.66;;;0.23;79.70
16094;BME280;8151;47.824;12.092;2023-01-27T07:38:48;96379.41;;;0.28;79.53
16094;BME280;8151;47.824;12.092;2023-01-27T07:41:16;96382.75;;;0.30;79.83
16094;BME280;8151;47.824;12.092;2023-01-27T07:43:46;96385.34;;;0.30;79.93
16094;BME280;8151;47.824;12.092;2023-01-27T07:46:17;96388.78;;;0.31;79.65
16094;BME280;8151;47.824;12.092;2023-01-27T07:48:45;96396.72;;;0.29;80.02
16094;BME280;8151;47.824;12.092;2023-01-27T07:51:14;96393.16;;;0.30;80.17
16094;BME280;8151;47.824;12.092;2023-01-27T07:53:44;96395.44;;;0.35;79.99
16094;BME280;8151;47.824;12.092;2023-01-27T07:56:13;96393.59;;;0.37;80.15
16094;BME280;8151;47.824;12.092;2023-01-27T07:58:41;96392.00;;;0.34;79.91
16094;BME280;8151;47.824;12.092;2023-01-27T08:01:11;96398.03;;;0.35;79.84
16094;BME280;8151;47.824;12.092;2023-01-27T08:03:40;96395.56;;;0.33;80.04
16094;BME280;8151;47.824;12.092;2023-01-27T08:06:10;96393.59;;;0.37;80.24
16094;BME280;8151;47.824;12.092;2023-01-27T08:08:38;96392.84;;;0.35;79.94
16094;BME280;8151;47.824;12.092;2023-01-27T08:11:11;96386.69;;;0.36;80.29
16094;BME280;8151;47.824;12.092;2023-01-27T08:13:40;96389.72;;;0.43;80.18
16094;BME280;8151;47.824;12.092;2023-01-27T08:16:11;96392.84;;;0.48;80.01
16094;BME280;8151;47.824;12.092;2023-01-27T08:18:41;96387.72;;;0.46;80.17
16094;BME280;8151;47.824;12.092;2023-01-27T08:21:10;96392.84;;;0.35;79.94
16094;BME280;8151;47.824;12.092;2023-01-27T08:23:39;96390.88;;;0.26;80.36
16094;BME280;8151;47.824;12.092;2023-01-27T08:26:09;96385.13;;;0.21;80.68
16094;BME280;8151;47.824;12.092;2023-01-27T08:28:38;96390.97;;;0.24;80.74
16094;BME280;8151;47.824;12.092;2023-01-27T08:31:09;96393.25;;;0.29;80.65
16094;BME280;8151;47.824;12.092;2023-01-27T08:33:38;96389.41;;;0.34;80.17
16094;BME280;8151;47.824;12.092;2023-01-27T08:36:09;96389.59;;;0.44;80.17
16094;BME280;8151;47.824;12.092;2023-01-27T08:38:39;96402.91;;;0.52;80.32
16094;BME280;8151;47.824;12.092;2023-01-27T08:41:11;96398.25;;;0.57;80.20
16094;BME280;8151;47.824;12.092;2023-01-27T08:43:40;96397.72;;;0.65;80.41
16094;BME280;8151;47.824;12.092;2023-01-27T08:46:09;96403.53;;;0.69;79.86
16094;BME280;8151;47.824;12.092;2023-01-27T08:48:39;96400.94;;;0.69;80.25
16094;BME280;8151;47.824;12.092;2023-01-27T08:51:10;96413.00;;;0.70;80.14
16094;BME280;8151;47.824;12.092;2023-01-27T08:53:39;96410.00;;;0.76;80.31
16094;BME280;8151;47.824;12.092;2023-01-27T08:56:12;96421.78;;;0.82;80.22
16094;BME280;8151;47.824;12.092;2023-01-27T08:58:40;96420.63;;;0.86;80.04
16094;BME280;8151;47.824;12.092;2023-01-27T09:01:09;96424.03;;;0.86;80.15
16094;BME280;8151;47.824;12.092;2023-01-27T09:03:37;96431.66;;;0.89;80.41
16094;BME280;8151;47.824;12.092;2023-01-27T09:06:07;96419.34;;;0.91;80.20
16094;BME280;8151;47.824;12.092;2023-01-27T09:08:36;96421.72;;;0.94;80.60
16094;BME280;8151;47.824;12.092;2023-01-27T09:11:09;96412.88;;;0.97;80.39
16094;BME280;8151;47.824;12.092;2023-01-27T09:13:39;96424.22;;;0.96;80.21
16094;BME280;8151;47.824;12.092;2023-01-27T09:16:08;96432.66;;;1.00;80.19
16094;BME280;8151;47.824;12.092;2023-01-27T09:18:37;96432.44;;;1.03;80.16
16094;BME280;8151;47.824;12.092;2023-01-27T09:21:08;96428.09;;;1.03;80.25
16094;BME280;8151;47.824;12.092;2023-01-27T09:23:36;96432.25;;;1.06;79.77
16094;BME280;8151;47.824;12.092;2023-01-27T09:26:05;96431.41;;;1.05;79.92
16094;BME280;8151;47.824;12.092;2023-01-27T09:28:33;96424.31;;;1.07;79.83
16094;BME280;8151;47.824;12.092;2023-01-27T09:31:03;96422.97;;;1.14;79.77
16094;BME280;8151;47.824;12.092;2023-01-27T09:33:32;96418.75;;;1.25;79.75
16094;BME280;8151;47.824;12.092;2023-01-27T09:36:03;96424.03;;;1.36;79.75
16094;BME280;8151;47.824;12.092;2023-01-27T09:38:37;96433.66;;;1.47;79.30
16094;BME280;8151;47.824;12.092;2023-01-27T09:41:28;96439.16;;;1.55;80.05
16094;BME280;8151;47.824;12.092;2023-01-27T09:44:25;96430.19;;;1.59;79.95
16094;BME280;8151;47.824;12.092;2023-01-27T09:47:13;96426.19;;;1.66;80.01
16094;BME280;8151;47.824;12.092;2023-01-27T09:49:59;96423.84;;;1.74;80.43
16094;BME280;8151;47.824;12.092;2023-01-27T09:52:51;96431.00;;;1.84;80.12
16094;BME280;8151;47.824;12.092;2023-01-27T09:55:30;96430.78;;;1.87;80.24
16094;BME280;8151;47.824;12.092;2023-01-27T09:58:09;96429.63;;;1.91;80.47
16094;BME280;8151;47.824;12.092;2023-01-27T10:00:47;96435.75;;;1.90;80.58
16094;BME280;8151;47.824;12.092;2023-01-27T10:03:35;96435.91;;;1.88;80.35
16094;BME280;8151;47.824;12.092;2023-01-27T10:06:21;96443.84;;;1.87;80.39
16094;BME280;8151;47.824;12.092;2023-01-27T10:09:08;96442.16;;;1.86;80.28
16094;BME280;8151;47.824;12.092;2023-01-27T10:11:45;96449.03;;;1.87;80.40
16094;BME280;8151;47.824;12.092;2023-01-27T10:14:29;96444.66;;;1.87;80.53
16094;BME280;8151;47.824;12.092;2023-01-27T10:17:09;96443.59;;;1.90;80.18
16094;BME280;8151;47.824;12.092;2023-01-27T10:19:52;96444.31;;;1.92;80.00
16094;BME280;8151;47.824;12.092;2023-01-27T10:22:34;96445.97;;;1.93;80.07
16094;BME280;8151;47.824;12.092;2023-01-27T10:25:15;96449.41;;;1.93;79.87
16094;BME280;8151;47.824;12.092;2023-01-27T10:27:53;96444.31;;;1.92;79.93
16094;BME280;8151;47.824;12.092;2023-01-27T10:30:28;96447.78;;;1.92;79.61
16094;BME280;8151;47.824;12.092;2023-01-27T10:33:08;96445.16;;;1.92;79.42
16094;BME280;8151;47.824;12.092;2023-01-27T10:35:44;96440.88;;;1.91;79.69
16094;BME280;8151;47.824;12.092;2023-01-27T10:38:24;96438.97;;;1.93;79.50
16094;BME280;8151;47.824;12.092;2023-01-27T10:41:02;96439.94;;;1.92;79.53
16094;BME280;8151;47.824;12.092;2023-01-27T10:43:43;96426.03;;;1.92;79.11
16094;BME280;8151;47.824;12.092;2023-01-27T10:46:24;96433.03;;;1.91;78.91
16094;BME280;8151;47.824;12.092;2023-01-27T10:49:00;96425.09;;;1.93;78.94
16094;BME280;8151;47.824;12.092;2023-01-27T10:51:36;96433.75;;;1.93;79.14
16094;BME280;8151;47.824;12.092;2023-01-27T10:54:11;96431.88;;;1.95;78.82
16094;BME280;8151;47.824;12.092;2023-01-27T10:56:44;96418.81;;;1.95;78.93
16094;BME280;8151;47.824;12.092;2023-01-27T10:59:19;96423.94;;;1.97;78.91
16094;BME280;8151;47.824;12.092;2023-01-27T11:01:53;96418.72;;;1.97;78.62
16094;BME280;8151;47.824;12.092;2023-01-27T11:04:29;96420.41;;;1.98;78.73
16094;BME280;8151;47.824;12.092;2023-01-27T11:07:02;96421.31;;;1.97;78.37
16094;BME280;8151;47.824;12.092;2023-01-27T11:09:34;96428.34;;;1.96;78.34
16094;BME280;8151;47.824;12.092;2023-01-27T11:12:05;96418.81;;;1.95;78.27
16094;BME280;8151;47.824;12.092;2023-01-27T11:14:44;96423.31;;;1.93;78.18
16094;BME280;8151;47.824;12.092;2023-01-27T11:17:19;96427.81;;;1.91;77.99
16094;BME280;8151;47.824;12.092;2023-01-27T11:19:56;96424.59;;;1.88;78.12
16094;BME280;8151;47.824;12.092;2023-01-27T11:22:34;96432.56;;;1.86;77.79
16094;BME280;8151;47.824;12.092;2023-01-27T11:25:06;96434.31;;;1.86;77.96
16094;BME280;8151;47.824;12.092;2023-01-27T11:27:57;96434.56;;;1.83;77.54
16094;BME280;8151;47.824;12.092;2023-01-27T11:30:35;96437.06;;;1.84;77.79
16094;BME280;8151;47.824;12.092;2023-01-27T11:33:12;96429.25;;;1.84;77.17
16094;BME280;8151;47.824;12.092;2023-01-27T11:35:46;96428.19;;;1.87;77.31
16094;BME280;8151;47.824;12.092;2023-01-27T11:38:19;96425.56;;;1.87;77.38
16094;BME280;8151;47.824;12.092;2023-01-27T11:40:50;96422.97;;;1.87;77.06
16094;BME280;8151;47.824;12.092;2023-01-27T11:43:23;96419.84;;;1.82;77.12
16094;BME280;8151;47.824;12.092;2023-01-27T11:45:59;96423.84;;;1.74;77.21
16094;BME280;8151;47.824;12.092;2023-01-27T11:48:35;96415.53;;;1.69;77.43
16094;BME280;8151;47.824;12.092;2023-01-27T11:51:17;96428.34;;;1.72;77.51
16094;BME280;8151;47.824;12.092;2023-01-27T11:53:52;96415.44;;;1.71;77.40
16094;BME280;8151;47.824;12.092;2023-01-27T11:56:27;96417.44;;;1.67;77.33
16094;BME280;8151;47.824;12.092;2023-01-27T11:59:00;96417.63;;;1.64;77.60
16094;BME280;8151;47.824;12.092;2023-01-27T12:01:37;96414.22;;;1.64;77.85
16094;BME280;8151;47.824;12.092;2023-01-27T12:04:12;96417.44;;;1.67;77.45
16094;BME280;8151;47.824;12.092;2023-01-27T12:06:46;96407.81;;;1.68;77.37
16094;BME280;8151;47.824;12.092;2023-01-27T12:09:36;96406.16;;;1.67;77.36
16094;BME280;8151;47.824;12.092;2023-01-27T12:12:20;96405.22;;;1.68;77.01
16094;BME280;8151;47.824;12.092;2023-01-27T12:14:50;96407.91;;;1.66;77.22
16094;BME280;8151;47.824;12.092;2023-01-27T12:17:31;96403.06;;;1.62;76.93
16094;BME280;8151;47.824;12.092;2023-01-27T12:20:06;96412.88;;;1.58;77.17
16094;BME280;8151;47.824;12.092;2023-01-27T12:22:44;96405.06;;;1.58;76.87
16094;BME280;8151;47.824;12.092;2023-01-27T12:25:20;96405.16;;;1.56;77.14
16094;BME280;8151;47.824;12.092;2023-01-27T12:27:53;96406.13;;;1.55;77.00
16094;BME280;8151;47.824;12.092;2023-01-27T12:30:24;96400.59;;;1.47;77.50
16094;BME280;8151;47.824;12.092;2023-01-27T12:32:54;96411.03;;;1.47;77.22
16094;BME280;8151;47.824;12.092;2023-01-27T12:35:25;96403.00;;;1.50;77.39
16094;BME280;8151;47.824;12.092;2023-01-27T12:38:00;96400.19;;;1.53;76.92
16094;BME280;8151;47.824;12.092;2023-01-27T12:40:31;96398.50;;;1.52;76.96
16094;BME280;8151;47.824;12.092;2023-01-27T12:43:09;96395.78;;;1.54;76.95
16094;BME280;8151;47.824;12.092;2023-01-27T12:45:39;96385.13;;;1.57;77.25
16094;BME280;8151;47.824;12.092;2023-01-27T12:48:17;96389.19;;;1.61;76.52
16094;BME280;8151;47.824;12.092;2023-01-27T12:50:54;96389.78;;;1.65;76.65
16094;BME280;8151;47.824;12.092;2023-01-27T12:53:28;96393.44;;;1.62;76.77
16094;BME280;8151;47.824;12.092;2023-01-27T12:56:00;96392.84;;;1.58;76.89
16094;BME280;8151;47.824;12.092;2023-01-27T12:58:34;96391.41;;;1.54;76.64
16094;BME280;8151;47.824;12.092;2023-01-27T13:01:05;96384.63;;;1.52;77.16
16094;BME280;8151;47.824;12.092;2023-01-27T13:03:39;96394.34;;;1.50;76.56
16094;BME280;8151;47.824;12.092;2023-01-27T13:06:14;96389.75;;;1.53;77.17
16094;BME280;8151;47.824;12.092;2023-01-27T13:08:43;96389.41;;;1.58;76.78
16094;BME280;8151;47.824;12.092;2023-01-27T13:11:14;96394.50;;;1.60;76.59
16094;BME280;8151;47.824;12.092;2023-01-27T13:13:48;96397.00;;;1.61;76.32
16094;BME280;8151;47.824;12.092;2023-01-27T13:16:25;96398.50;;;1.52;76.61
16094;BME280;8151;47.824;12.092;2023-01-27T13:18:55;96407.94;;;1.42;76.91
16094;BME280;8151;47.824;12.092;2023-01-27T13:21:27;96401.78;;;1.43;77.13
16094;BME280;8151;47.824;12.092;2023-01-27T13:23:58;96407.59;;;1.47;76.48
16094;BME280;8151;47.824;12.092;2023-01-27T13:26:30;96405.72;;;1.49;76.54
16094;BME280;8151;47.824;12.092;2023-01-27T13:29:05;96407.84;;;1.44;76.53
16094;BME280;8151;47.824;12.092;2023-01-27T13:31:40;96414.94;;;1.42;76.84
16094;BME280;8151;47.824;12.092;2023-01-27T13:34:16;96407.69;;;1.45;76.69
16094;BME280;8151;47.824;12.092;2023-01-27T13:36:52;96411.16;;;1.46;76.56
16094;BME280;8151;47.824;12.092;2023-01-27T13:39:25;96404.16;;;1.46;76.48